Time;durP1;ratioP1;P1;durP2;ratioP2;P2;SDS_P1;SDS_P2;PMS_P1;PMS_P2;Temp;Humidity;BMP_temperature;BMP_pressure;BME280_temperature;BME280_humidity;BME280_pressure;Samples;Min_cycle;Max_cycle;Signal;HPM_P1;HPM_P2
2021/01/11 00:05:04;;;;;;;117.4;77.6;;;;;;;-5.98;82.90332;99359.53;;;;
2021/01/11 00:15:04;;;;;;;123.7;73.3;;;;;;;-6.37;83.95117;99359.81;;;;
2021/01/11 00:24:58;;;;;;;126.6;74.8;;;;;;;-6.4;83.67578;99352.31;;;;
2021/01/11 00:34:55;;;;;;;105.5;72.9;;;;;;;-6.55;83.66699;99346.23;;;;
2021/01/11 00:44:51;;;;;;;119.4;75.5;;;;;;;-6.65;82.89063;99338.64;;;;
2021/01/11 00:54:48;;;;;;;127.3;76.3;;;;;;;-6.88;85.24316;99331.83;;;;
2021/01/11 01:04:45;;;;;;;129.6;74.6;;;;;;;-6.97;84.66406;99325.83;;;;
2021/01/11 01:14:42;;;;;;;102.9;65.2;;;;;;;-6.99;84.37793;99324.39;;;;
2021/01/11 01:24:39;;;;;;;107.3;63.6;;;;;;;-7.06;83.63086;99311.19;;;;
2021/01/11 01:34:36;;;;;;;109.6;71.6;;;;;;;-7.17;82.84277;99307.19;;;;
2021/01/11 01:44:32;;;;;;;109.2;63.5;;;;;;;-7.29;82.77441;99307.8;;;;
2021/01/11 01:54:29;;;;;;;122.3;75.2;;;;;;;-7.41;83.10742;99307.38;;;;
2021/01/11 02:04:26;;;;;;;102.4;66.7;;;;;;;-7.52;83.15137;99294.7;;;;
2021/01/11 02:14:24;;;;;;;114.4;66.5;;;;;;;-7.57;83.05469;99286.57;;;;
2021/01/11 02:24:43;;;;;;;115.1;67.5;;;;;;;-7.53;83.47168;99279.97;;;;
2021/01/11 02:34:16;;;;;;;105.1;57.9;;;;;;;-7.55;83.47852;99287.2;;;;
2021/01/11 02:44:13;;;;;;;103.7;58.9;;;;;;;-7.55;84.22363;99284.58;;;;
2021/01/11 02:54:14;;;;;;;83.4;50.8;;;;;;;-7.52;84.28418;99273.76;;;;
2021/01/11 03:04:07;;;;;;;71.6;41.5;;;;;;;-7.52;83;99284.23;;;;
2021/01/11 03:14:04;;;;;;;85.8;47.4;;;;;;;-7.58;82.82617;99271.85;;;;
2021/01/11 03:24:00;;;;;;;116.8;60.1;;;;;;;-7.81;83.43848;99265.81;;;;
2021/01/11 03:33:57;;;;;;;85.4;44.3;;;;;;;-7.76;83.25488;99264.28;;;;
2021/01/11 03:43:54;;;;;;;77.5;42.7;;;;;;;-7.85;83.07324;99272.37;;;;
2021/01/11 03:53:50;;;;;;;75.6;44;;;;;;;-7.87;83.17773;99262.06;;;;
2021/01/11 04:03:47;;;;;;;77.2;46;;;;;;;-7.84;83.5293;99274.8;;;;
2021/01/11 04:13:44;;;;;;;91.8;46.2;;;;;;;-7.77;84.19043;99270.5;;;;
2021/01/11 04:23:41;;;;;;;65.1;37.5;;;;;;;-7.6;84.95605;99280.88;;;;
2021/01/11 04:33:38;;;;;;;61.3;36.2;;;;;;;-7.6;84.42773;99267.78;;;;
2021/01/11 04:43:34;;;;;;;75.6;42.7;;;;;;;-7.67;83.15332;99270.29;;;;
2021/01/11 04:53:31;;;;;;;93.4;51.9;;;;;;;-7.77;82.90625;99256.59;;;;
2021/01/11 05:03:28;;;;;;;77.9;46.1;;;;;;;-7.83;82.21582;99262.53;;;;
2021/01/11 05:13:24;;;;;;;107.1;55.5;;;;;;;-7.94;82.17188;99262.92;;;;
2021/01/11 05:23:21;;;;;;;78.8;46.6;;;;;;;-8.09;81.5166;99262.05;;;;
2021/01/11 05:33:18;;;;;;;90.8;48.8;;;;;;;-8.22;82.84961;99257.36;;;;
2021/01/11 05:43:15;;;;;;;82.4;40.1;;;;;;;-8.21;82.98242;99262.44;;;;
2021/01/11 05:53:11;;;;;;;60;28.5;;;;;;;-8.25;82.58594;99253.3;;;;
2021/01/11 06:03:08;;;;;;;53.2;27.5;;;;;;;-8.27;82.37598;99270.15;;;;
2021/01/11 06:13:08;;;;;;;36;20.4;;;;;;;-8.22;84.36816;99276.48;;;;
2021/01/11 06:23:05;;;;;;;44.1;23.6;;;;;;;-8.13;82.7041;99294.75;;;;
2021/01/11 06:32:58;;;;;;;61.5;34.5;;;;;;;-8.37;81.46289;99261.73;;;;
2021/01/11 06:42:55;;;;;;;63.7;38.7;;;;;;;-8.27;81.27832;99302.34;;;;
2021/01/11 06:52:51;;;;;;;61.5;35.1;;;;;;;-8.31;82.89844;99298.45;;;;
2021/01/11 07:02:48;;;;;;;83.9;43.2;;;;;;;-8;82.59082;99289.77;;;;
2021/01/11 07:12:45;;;;;;;72.2;45.8;;;;;;;-7.89;81.82617;99278.92;;;;
2021/01/11 07:22:42;;;;;;;68.3;43.3;;;;;;;-7.66;82.10742;99300.68;;;;
2021/01/11 07:32:38;;;;;;;50.8;28.4;;;;;;;-7.41;82.29785;99298.7;;;;
2021/01/11 07:42:35;;;;;;;53.9;31.6;;;;;;;-7.03;81.80859;99304.77;;;;
2021/01/11 07:52:32;;;;;;;53.6;34.9;;;;;;;-6.83;82.09863;99303.27;;;;
2021/01/11 08:02:29;;;;;;;70.3;43.6;;;;;;;-6.43;81.69922;99308.1;;;;
2021/01/11 08:12:26;;;;;;;82;55.6;;;;;;;-6.01;81.4668;99315.3;;;;
2021/01/11 08:22:23;;;;;;;105.8;70.3;;;;;;;-5.79;81.34766;99310.86;;;;
2021/01/11 08:32:20;;;;;;;101.2;57.8;;;;;;;-5.42;81.14648;99325.61;;;;
2021/01/11 08:42:21;;;;;;;92.4;62.9;;;;;;;-5.2;81.11426;99332.47;;;;
2021/01/11 08:52:14;;;;;;;63.1;43.5;;;;;;;-5.17;81.32715;99325.03;;;;
2021/01/11 09:02:11;;;;;;;66;45.7;;;;;;;-4.55;81.1416;99334.84;;;;
2021/01/11 09:12:08;;;;;;;67.3;45.2;;;;;;;-4.22;80.1377;99327.95;;;;
2021/01/11 09:22:14;;;;;;;89.6;55;;;;;;;-4.04;80.15918;99323.98;;;;
2021/01/11 09:32:02;;;;;;;69.2;46.1;;;;;;;-3.78;80.14453;99324.07;;;;
2021/01/11 09:41:59;;;;;;;56.9;40;;;;;;;-3.62;79.95605;99315.84;;;;
2021/01/11 09:51:57;;;;;;;56.8;40.4;;;;;;;-3.21;80.3291;99311.26;;;;
2021/01/11 10:01:54;;;;;;;76.3;44.9;;;;;;;-2.83;79.51563;99308.84;;;;
2021/01/11 10:11:51;;;;;;;47.4;35.2;;;;;;;-2.38;78.33105;99293.14;;;;
2021/01/11 10:21:48;;;;;;;54;35.4;;;;;;;-1.99;76.01367;99294.85;;;;
2021/01/11 10:31:46;;;;;;;50.9;37.4;;;;;;;-1.77;74.00488;99290.91;;;;
2021/01/11 10:41:43;;;;;;;52.1;30.4;;;;;;;-1.64;73.66406;99267.05;;;;
2021/01/11 10:51:41;;;;;;;69;45.1;;;;;;;-1.12;74.77734;99258.77;;;;
2021/01/11 11:01:38;;;;;;;47.2;35.4;;;;;;;-0.92;71.16113;99240.07;;;;
2021/01/11 11:11:35;;;;;;;51.1;33.4;;;;;;;-0.48;72.16016;99227.61;;;;
2021/01/11 11:21:33;;;;;;;50.6;38.4;;;;;;;-0.35;71.10156;99216.89;;;;
2021/01/11 11:31:33;;;;;;;50.1;37;;;;;;;0.02;69.56641;99199.91;;;;
2021/01/11 11:41:28;;;;;;;46.2;32.7;;;;;;;0.19;69.64746;99190.3;;;;
2021/01/11 11:51:27;;;;;;;33.5;24.9;;;;;;;0.47;68.03809;99187.03;;;;
2021/01/11 12:01:23;;;;;;;33.4;20.9;;;;;;;0.71;66.75879;99170.12;;;;
2021/01/11 12:11:21;;;;;;;19.5;15.5;;;;;;;1.07;63.06055;99152.36;;;;
2021/01/11 12:21:28;;;;;;;32.7;23.4;;;;;;;1.32;63.8291;99142.3;;;;
2021/01/11 12:31:24;;;;;;;31.9;24.1;;;;;;;1.31;62.23242;99133.52;;;;
2021/01/11 12:41:14;;;;;;;23.7;16.4;;;;;;;0.97;60.85352;99129.84;;;;
2021/01/11 12:51:12;;;;;;;22.1;15;;;;;;;0.87;60.9043;99126.16;;;;
2021/01/11 13:01:10;;;;;;;21.2;15.5;;;;;;;1.06;60.87695;99127.66;;;;
2021/01/11 13:11:08;;;;;;;19.7;13.8;;;;;;;1.05;59.01172;99123.38;;;;
2021/01/11 13:21:05;;;;;;;18.4;13.3;;;;;;;1.08;59.64844;99120.27;;;;
2021/01/11 13:31:03;;;;;;;18.3;13.3;;;;;;;0.79;57.97754;99111.42;;;;
2021/01/11 13:41:01;;;;;;;19.7;13.9;;;;;;;0.74;59.25781;99111.3;;;;
2021/01/11 13:50:59;;;;;;;17.7;13.8;;;;;;;0.38;59.9043;99119.47;;;;
2021/01/11 14:00:56;;;;;;;16.7;12.8;;;;;;;0.08;59.74023;99108.09;;;;
2021/01/11 14:10:54;;;;;;;15.3;11.8;;;;;;;-0.29;61.10352;99102.94;;;;
2021/01/11 14:20:52;;;;;;;14.7;12.9;;;;;;;-0.69;61.59863;99099.98;;;;
2021/01/11 14:30:49;;;;;;;19.5;14;;;;;;;-1.23;63.19531;99106.08;;;;
2021/01/11 14:40:47;;;;;;;19.8;17.7;;;;;;;-1.74;64.41797;99116.1;;;;
2021/01/11 14:50:49;;;;;;;28.7;19.1;;;;;;;-2.24;65.8584;99109.94;;;;
2021/01/11 15:00:42;;;;;;;33.2;24.3;;;;;;;-2.7;67.45508;99105.7;;;;
2021/01/11 15:10:39;;;;;;;27;16.8;;;;;;;-2.79;69.26074;99103.52;;;;
2021/01/11 15:20:36;;;;;;;27.7;18.7;;;;;;;-3.26;69.42383;99100.19;;;;
2021/01/11 15:30:34;;;;;;;41.2;24.6;;;;;;;-3.77;70.7832;99107.95;;;;
2021/01/11 15:40:31;;;;;;;35.8;24.3;;;;;;;-4.12;72.11133;99104.69;;;;
2021/01/11 15:50:28;;;;;;;41.4;27.7;;;;;;;-4.46;73;99098.75;;;;
2021/01/11 16:00:25;;;;;;;73.7;52.6;;;;;;;-4.8;74.07617;99097.85;;;;
2021/01/11 16:10:22;;;;;;;44.3;32.2;;;;;;;-4.78;76.22363;99081.86;;;;
2021/01/11 16:20:19;;;;;;;48.5;35.9;;;;;;;-4.7;77.38184;99079.06;;;;
2021/01/11 16:30:20;;;;;;;157.3;83.8;;;;;;;-4.69;77.93848;99070.19;;;;
2021/01/11 16:40:13;;;;;;;96.4;58.4;;;;;;;-4.72;78.00781;99060.06;;;;
2021/01/11 16:50:10;;;;;;;60.4;39.1;;;;;;;-4.78;77.96484;99055.57;;;;
2021/01/11 17:00:07;;;;;;;88.7;50.6;;;;;;;-4.87;78.78613;99046.25;;;;
2021/01/11 17:10:04;;;;;;;63.7;42.5;;;;;;;-4.85;79.46387;99050.3;;;;
2021/01/11 17:20:01;;;;;;;57.2;37.9;;;;;;;-4.75;79.65625;99036.77;;;;
2021/01/11 17:29:58;;;;;;;53.2;32.4;;;;;;;-4.61;79.96582;99030.53;;;;
2021/01/11 17:39:55;;;;;;;59.5;36.2;;;;;;;-4.55;79.6709;99023.69;;;;
2021/01/11 17:49:52;;;;;;;70.4;47.4;;;;;;;-4.67;80.29297;99021.64;;;;
2021/01/11 17:59:50;;;;;;;102.9;64;;;;;;;-4.62;80.59473;99021.05;;;;
2021/01/11 18:09:47;;;;;;;63.2;43.5;;;;;;;-4.82;79.94824;99026.24;;;;
2021/01/11 18:19:44;;;;;;;143.1;89.5;;;;;;;-5.16;80.05762;99032.4;;;;
2021/01/11 18:29:42;;;;;;;96;65.9;;;;;;;-5.38;81.13379;99022.98;;;;
2021/01/11 18:39:38;;;;;;;112;75.1;;;;;;;-5.6;81.05859;99013.6;;;;
2021/01/11 18:49:35;;;;;;;146;86.9;;;;;;;-5.74;81.54004;99017.16;;;;
2021/01/11 18:59:31;;;;;;;123.8;77.7;;;;;;;-5.84;82.2168;99020.13;;;;
2021/01/11 19:09:28;;;;;;;135.7;85;;;;;;;-5.97;82.24414;99001.67;;;;
2021/01/11 19:19:25;;;;;;;144.2;95.8;;;;;;;-6.08;82.18945;99001.41;;;;
2021/01/11 19:29:24;;;;;;;115.7;76.8;;;;;;;-6.2;82.36133;98999.3;;;;
2021/01/11 19:39:19;;;;;;;144.8;83.4;;;;;;;-6.25;82.96777;98990.4;;;;
2021/01/11 19:49:19;;;;;;;106.5;60.4;;;;;;;-6.33;83.21387;98980.85;;;;
2021/01/11 19:59:13;;;;;;;151.4;101.9;;;;;;;-6.45;82.85156;98976.29;;;;
2021/01/11 20:09:10;;;;;;;163.6;94.4;;;;;;;-6.46;83.36035;98967.64;;;;
2021/01/11 20:19:07;;;;;;;127.7;74.4;;;;;;;-6.44;84.45605;98954.33;;;;
2021/01/11 20:29:04;;;;;;;160.2;90.5;;;;;;;-6.55;83.66699;98950.41;;;;
2021/01/11 20:39:00;;;;;;;135.2;83.3;;;;;;;-6.68;82.67969;98938.02;;;;
2021/01/11 20:48:57;;;;;;;127.1;77.1;;;;;;;-6.82;82.64063;98936.28;;;;
2021/01/11 20:58:54;;;;;;;131.1;72.1;;;;;;;-6.98;82.45605;98927.87;;;;
2021/01/11 21:08:51;;;;;;;89.1;54.6;;;;;;;-7.09;83.375;98923.94;;;;
2021/01/11 21:18:48;;;;;;;104.4;55.7;;;;;;;-7.16;84.01074;98897.69;;;;
2021/01/11 21:28:45;;;;;;;81.7;54.5;;;;;;;-7.24;83.62695;98887.33;;;;
2021/01/11 21:38:41;;;;;;;105.1;58.9;;;;;;;-7.39;82.4209;98894.41;;;;
2021/01/11 21:48:38;;;;;;;188.7;103.5;;;;;;;-7.5;81.91211;98886.25;;;;
2021/01/11 21:58:35;;;;;;;166.6;96.7;;;;;;;-7.74;83.1377;98858.62;;;;
2021/01/11 22:08:32;;;;;;;139.8;88.1;;;;;;;-7.78;84.59668;98844.28;;;;
2021/01/11 22:18:29;;;;;;;140.8;81.5;;;;;;;-7.84;83.78711;98831.91;;;;
2021/01/11 22:28:25;;;;;;;155.4;85.7;;;;;;;-7.92;82.9082;98821.58;;;;
2021/01/11 22:38:22;;;;;;;138.1;87;;;;;;;-7.99;82.24902;98818.9;;;;
2021/01/11 22:48:20;;;;;;;107.9;70.1;;;;;;;-8.03;82.61719;98799.33;;;;
2021/01/11 22:58:16;;;;;;;98.2;54;;;;;;;-7.97;83.38281;98810.85;;;;
2021/01/11 23:08:12;;;;;;;80.6;51;;;;;;;-7.89;83.84277;98805.52;;;;
2021/01/11 23:18:09;;;;;;;77.7;46.9;;;;;;;-7.85;83.09473;98786.66;;;;
2021/01/11 23:28:06;;;;;;;64.6;35.3;;;;;;;-7.77;83.42383;98775.25;;;;
2021/01/11 23:38:03;;;;;;;75.8;42.2;;;;;;;-7.57;84.29297;98767.61;;;;
2021/01/11 23:47:59;;;;;;;99.8;56.5;;;;;;;-7.65;83.39453;98752.84;;;;
2021/01/11 23:57:56;;;;;;;64.8;36.4;;;;;;;-7.65;82.91992;98742.38;;;;
